sensor_id;sensor_type;location;lat;lon;timestamp;P1;durP1;ratioP1;P2;durP2;ratioP2
62861;SDS011;48953;53.110;5.592;2023-05-23T00:01:09;8.35;;;4.38;;
62861;SDS011;48953;53.110;5.592;2023-05-23T00:03:35;14.52;;;8.07;;
62861;SDS011;48953;53.110;5.592;2023-05-23T00:06:04;9.98;;;5.07;;
62861;SDS011;48953;53.110;5.592;2023-05-23T00:08:30;9.00;;;4.57;;
62861;SDS011;48953;53.110;5.592;2023-05-23T00:10:56;12.75;;;5.88;;
62861;SDS011;48953;53.110;5.592;2023-05-23T00:13:22;17.17;;;9.20;;
62861;SDS011;48953;53.110;5.592;2023-05-23T00:15:48;12.60;;;5.72;;
62861;SDS011;48953;53.110;5.592;2023-05-23T00:18:24;10.00;;;4.43;;
62861;SDS011;48953;53.110;5.592;2023-05-23T00:20:56;11.73;;;6.07;;
62861;SDS011;48953;53.110;5.592;2023-05-23T00:23:23;16.38;;;5.78;;
62861;SDS011;48953;53.110;5.592;2023-05-23T00:25:49;14.32;;;6.80;;
62861;SDS011;48953;53.110;5.592;2023-05-23T00:28:18;20.27;;;5.28;;
62861;SDS011;48953;53.110;5.592;2023-05-23T00:30:44;15.40;;;5.90;;
62861;SDS011;48953;53.110;5.592;2023-05-23T00:33:10;11.65;;;4.85;;
62861;SDS011;48953;53.110;5.592;2023-05-23T00:35:38;12.52;;;4.43;;
62861;SDS011;48953;53.110;5.592;2023-05-23T00:38:04;11.77;;;5.90;;
62861;SDS011;48953;53.110;5.592;2023-05-23T00:40:31;9.38;;;4.57;;
62861;SDS011;48953;53.110;5.592;2023-05-23T00:42:58;11.30;;;5.78;;
62861;SDS011;48953;53.110;5.592;2023-05-23T00:45:24;11.70;;;6.25;;
62861;SDS011;48953;53.110;5.592;2023-05-23T00:47:50;16.88;;;9.48;;
62861;SDS011;48953;53.110;5.592;2023-05-23T00:50:17;10.07;;;5.82;;
62861;SDS011;48953;53.110;5.592;2023-05-23T00:52:43;12.90;;;6.82;;
62861;SDS011;48953;53.110;5.592;2023-05-23T00:55:10;12.93;;;5.57;;
62861;SDS011;48953;53.110;5.592;2023-05-23T00:57:36;15.88;;;5.93;;
62861;SDS011;48953;53.110;5.592;2023-05-23T01:00:08;17.33;;;8.77;;
62861;SDS011;48953;53.110;5.592;2023-05-23T01:02:38;13.73;;;5.05;;
62861;SDS011;48953;53.110;5.592;2023-05-23T01:05:05;14.20;;;7.10;;
62861;SDS011;48953;53.110;5.592;2023-05-23T01:07:31;15.68;;;8.15;;
62861;SDS011;48953;53.110;5.592;2023-05-23T01:09:57;11.35;;;5.80;;
62861;SDS011;48953;53.110;5.592;2023-05-23T01:12:25;13.55;;;4.18;;
62861;SDS011;48953;53.110;5.592;2023-05-23T01:15:05;17.98;;;6.35;;
62861;SDS011;48953;53.110;5.592;2023-05-23T01:20:15;15.88;;;6.13;;
62861;SDS011;48953;53.110;5.592;2023-05-23T01:25:20;15.73;;;6.25;;
62861;SDS011;48953;53.110;5.592;2023-05-23T01:27:52;9.50;;;4.70;;
62861;SDS011;48953;53.110;5.592;2023-05-23T01:30:20;17.00;;;6.38;;
62861;SDS011;48953;53.110;5.592;2023-05-23T01:32:49;6.28;;;3.30;;
62861;SDS011;48953;53.110;5.592;2023-05-23T01:35:23;8.13;;;4.38;;
62861;SDS011;48953;53.110;5.592;2023-05-23T01:37:51;8.23;;;3.30;;
62861;SDS011;48953;53.110;5.592;2023-05-23T01:40:17;19.60;;;4.47;;
62861;SDS011;48953;53.110;5.592;2023-05-23T01:42:48;5.97;;;3.15;;
62861;SDS011;48953;53.110;5.592;2023-05-23T01:47:46;10.35;;;4.97;;
62861;SDS011;48953;53.110;5.592;2023-05-23T01:50:14;8.55;;;3.42;;
62861;SDS011;48953;53.110;5.592;2023-05-23T01:52:40;14.23;;;5.30;;
62861;SDS011;48953;53.110;5.592;2023-05-23T01:55:06;11.27;;;5.00;;
62861;SDS011;48953;53.110;5.592;2023-05-23T01:57:35;13.23;;;5.18;;
62861;SDS011;48953;53.110;5.592;2023-05-23T02:00:04;9.32;;;4.60;;
62861;SDS011;48953;53.110;5.592;2023-05-23T02:02:33;9.00;;;4.05;;
62861;SDS011;48953;53.110;5.592;2023-05-23T02:05:00;13.40;;;6.15;;
62861;SDS011;48953;53.110;5.592;2023-05-23T02:07:26;7.18;;;3.83;;
62861;SDS011;48953;53.110;5.592;2023-05-23T02:09:52;11.18;;;5.28;;
62861;SDS011;48953;53.110;5.592;2023-05-23T02:12:18;8.40;;;4.20;;
62861;SDS011;48953;53.110;5.592;2023-05-23T02:14:44;11.43;;;4.97;;
62861;SDS011;48953;53.110;5.592;2023-05-23T02:17:09;10.02;;;4.47;;
62861;SDS011;48953;53.110;5.592;2023-05-23T02:19:36;15.07;;;5.32;;
62861;SDS011;48953;53.110;5.592;2023-05-23T02:22:02;8.07;;;3.22;;
62861;SDS011;48953;53.110;5.592;2023-05-23T02:24:28;15.70;;;4.28;;
62861;SDS011;48953;53.110;5.592;2023-05-23T02:27:01;6.80;;;3.53;;
62861;SDS011;48953;53.110;5.592;2023-05-23T02:29:27;15.35;;;7.00;;
62861;SDS011;48953;53.110;5.592;2023-05-23T02:31:53;17.02;;;4.72;;
62861;SDS011;48953;53.110;5.592;2023-05-23T02:34:19;12.05;;;3.80;;
62861;SDS011;48953;53.110;5.592;2023-05-23T02:36:45;10.93;;;3.95;;
62861;SDS011;48953;53.110;5.592;2023-05-23T02:39:11;10.70;;;5.22;;
62861;SDS011;48953;53.110;5.592;2023-05-23T02:41:37;10.35;;;4.10;;
62861;SDS011;48953;53.110;5.592;2023-05-23T02:44:03;8.32;;;2.20;;
62861;SDS011;48953;53.110;5.592;2023-05-23T02:46:29;8.15;;;3.83;;
62861;SDS011;48953;53.110;5.592;2023-05-23T02:48:55;9.55;;;3.17;;
62861;SDS011;48953;53.110;5.592;2023-05-23T02:51:21;9.48;;;3.10;;
62861;SDS011;48953;53.110;5.592;2023-05-23T02:53:47;5.75;;;2.63;;
62861;SDS011;48953;53.110;5.592;2023-05-23T02:56:13;11.15;;;3.40;;
62861;SDS011;48953;53.110;5.592;2023-05-23T02:58:39;7.82;;;2.35;;
62861;SDS011;48953;53.110;5.592;2023-05-23T03:01:05;4.47;;;2.15;;
62861;SDS011;48953;53.110;5.592;2023-05-23T03:03:32;11.43;;;4.40;;
62861;SDS011;48953;53.110;5.592;2023-05-23T03:05:58;9.27;;;3.20;;
62861;SDS011;48953;53.110;5.592;2023-05-23T03:08:24;14.68;;;4.63;;
62861;SDS011;48953;53.110;5.592;2023-05-23T03:10:50;12.75;;;4.88;;
62861;SDS011;48953;53.110;5.592;2023-05-23T03:13:30;9.70;;;3.50;;
62861;SDS011;48953;53.110;5.592;2023-05-23T03:15:56;12.48;;;5.65;;
62861;SDS011;48953;53.110;5.592;2023-05-23T03:18:22;8.27;;;3.78;;
62861;SDS011;48953;53.110;5.592;2023-05-23T03:20:48;9.73;;;5.25;;
62861;SDS011;48953;53.110;5.592;2023-05-23T03:23:14;4.88;;;2.83;;
62861;SDS011;48953;53.110;5.592;2023-05-23T03:25:41;7.15;;;3.15;;
62861;SDS011;48953;53.110;5.592;2023-05-23T03:28:07;6.95;;;2.78;;
62861;SDS011;48953;53.110;5.592;2023-05-23T03:30:33;12.93;;;3.13;;
62861;SDS011;48953;53.110;5.592;2023-05-23T03:32:59;10.45;;;3.88;;
62861;SDS011;48953;53.110;5.592;2023-05-23T03:35:25;10.13;;;3.17;;
62861;SDS011;48953;53.110;5.592;2023-05-23T03:37:51;9.73;;;4.57;;
62861;SDS011;48953;53.110;5.592;2023-05-23T03:40:17;12.20;;;4.45;;
62861;SDS011;48953;53.110;5.592;2023-05-23T03:42:43;10.32;;;4.88;;
62861;SDS011;48953;53.110;5.592;2023-05-23T03:45:09;10.23;;;4.15;;
62861;SDS011;48953;53.110;5.592;2023-05-23T03:47:36;3.47;;;2.33;;
62861;SDS011;48953;53.110;5.592;2023-05-23T03:50:02;9.05;;;3.95;;
62861;SDS011;48953;53.110;5.592;2023-05-23T03:52:28;10.52;;;5.65;;
62861;SDS011;48953;53.110;5.592;2023-05-23T03:54:56;5.68;;;3.17;;
62861;SDS011;48953;53.110;5.592;2023-05-23T03:57:22;8.93;;;4.07;;
62861;SDS011;48953;53.110;5.592;2023-05-23T03:59:48;5.63;;;3.20;;
62861;SDS011;48953;53.110;5.592;2023-05-23T04:02:14;8.95;;;4.57;;
62861;SDS011;48953;53.110;5.592;2023-05-23T04:04:40;7.95;;;4.68;;
62861;SDS011;48953;53.110;5.592;2023-05-23T04:07:07;8.18;;;3.25;;
62861;SDS011;48953;53.110;5.592;2023-05-23T04:09:33;8.43;;;4.05;;
62861;SDS011;48953;53.110;5.592;2023-05-23T04:12:00;10.18;;;3.28;;
62861;SDS011;48953;53.110;5.592;2023-05-23T04:14:26;13.50;;;4.10;;
62861;SDS011;48953;53.110;5.592;2023-05-23T04:16:52;9.90;;;3.90;;
62861;SDS011;48953;53.110;5.592;2023-05-23T04:19:18;6.03;;;3.85;;
62861;SDS011;48953;53.110;5.592;2023-05-23T04:21:44;5.90;;;2.40;;
62861;SDS011;48953;53.110;5.592;2023-05-23T04:24:10;12.70;;;4.13;;
62861;SDS011;48953;53.110;5.592;2023-05-23T04:26:36;7.53;;;2.55;;
62861;SDS011;48953;53.110;5.592;2023-05-23T04:29:03;10.93;;;5.57;;
62861;SDS011;48953;53.110;5.592;2023-05-23T04:31:30;8.05;;;2.90;;
62861;SDS011;48953;53.110;5.592;2023-05-23T04:33:57;14.60;;;3.60;;
62861;SDS011;48953;53.110;5.592;2023-05-23T04:36:23;10.88;;;4.85;;
62861;SDS011;48953;53.110;5.592;2023-05-23T04:38:50;9.98;;;3.28;;
62861;SDS011;48953;53.110;5.592;2023-05-23T04:41:16;9.57;;;3.80;;
62861;SDS011;48953;53.110;5.592;2023-05-23T04:43:47;6.35;;;3.50;;
62861;SDS011;48953;53.110;5.592;2023-05-23T04:46:18;12.55;;;4.95;;
62861;SDS011;48953;53.110;5.592;2023-05-23T04:48:46;10.55;;;4.50;;
62861;SDS011;48953;53.110;5.592;2023-05-23T04:51:12;8.95;;;3.95;;
62861;SDS011;48953;53.110;5.592;2023-05-23T04:53:38;7.55;;;3.20;;
62861;SDS011;48953;53.110;5.592;2023-05-23T04:56:05;8.65;;;4.45;;
62861;SDS011;48953;53.110;5.592;2023-05-23T04:58:32;7.45;;;3.13;;
62861;SDS011;48953;53.110;5.592;2023-05-23T05:00:58;7.97;;;3.65;;
62861;SDS011;48953;53.110;5.592;2023-05-23T05:03:24;4.90;;;3.13;;
62861;SDS011;48953;53.110;5.592;2023-05-23T05:05:50;5.20;;;1.65;;
62861;SDS011;48953;53.110;5.592;2023-05-23T05:08:17;6.75;;;2.88;;
62861;SDS011;48953;53.110;5.592;2023-05-23T05:10:46;8.40;;;3.70;;
62861;SDS011;48953;53.110;5.592;2023-05-23T05:13:12;7.55;;;2.78;;
62861;SDS011;48953;53.110;5.592;2023-05-23T05:15:38;13.15;;;3.38;;
62861;SDS011;48953;53.110;5.592;2023-05-23T05:18:04;8.13;;;2.00;;
62861;SDS011;48953;53.110;5.592;2023-05-23T05:20:32;6.78;;;2.58;;
62861;SDS011;48953;53.110;5.592;2023-05-23T05:23:07;12.98;;;2.92;;
62861;SDS011;48953;53.110;5.592;2023-05-23T05:25:33;8.18;;;2.83;;
62861;SDS011;48953;53.110;5.592;2023-05-23T05:28:02;5.55;;;1.60;;
62861;SDS011;48953;53.110;5.592;2023-05-23T05:30:30;18.45;;;3.88;;
62861;SDS011;48953;53.110;5.592;2023-05-23T05:33:02;7.87;;;2.60;;
62861;SDS011;48953;53.110;5.592;2023-05-23T05:35:31;10.10;;;2.80;;
62861;SDS011;48953;53.110;5.592;2023-05-23T05:37:58;11.38;;;3.03;;
62861;SDS011;48953;53.110;5.592;2023-05-23T05:40:24;13.50;;;3.15;;
62861;SDS011;48953;53.110;5.592;2023-05-23T05:42:50;8.20;;;2.85;;
62861;SDS011;48953;53.110;5.592;2023-05-23T05:45:16;13.68;;;3.60;;
62861;SDS011;48953;53.110;5.592;2023-05-23T05:47:43;7.65;;;1.88;;
62861;SDS011;48953;53.110;5.592;2023-05-23T05:50:09;6.80;;;2.15;;
62861;SDS011;48953;53.110;5.592;2023-05-23T05:52:35;10.30;;;3.50;;
62861;SDS011;48953;53.110;5.592;2023-05-23T05:55:12;12.75;;;2.42;;
62861;SDS011;48953;53.110;5.592;2023-05-23T05:57:38;15.02;;;2.63;;
62861;SDS011;48953;53.110;5.592;2023-05-23T06:00:05;9.07;;;2.33;;
62861;SDS011;48953;53.110;5.592;2023-05-23T06:02:36;12.88;;;2.95;;
62861;SDS011;48953;53.110;5.592;2023-05-23T06:05:02;6.80;;;2.00;;
62861;SDS011;48953;53.110;5.592;2023-05-23T06:07:30;10.98;;;2.28;;
62861;SDS011;48953;53.110;5.592;2023-05-23T06:09:56;8.82;;;2.13;;
62861;SDS011;48953;53.110;5.592;2023-05-23T06:12:22;21.40;;;2.90;;
62861;SDS011;48953;53.110;5.592;2023-05-23T06:14:48;9.98;;;2.70;;
62861;SDS011;48953;53.110;5.592;2023-05-23T06:17:14;6.25;;;1.88;;
62861;SDS011;48953;53.110;5.592;2023-05-23T06:19:40;12.65;;;3.33;;
62861;SDS011;48953;53.110;5.592;2023-05-23T06:22:06;10.57;;;2.55;;
62861;SDS011;48953;53.110;5.592;2023-05-23T06:24:32;8.18;;;2.00;;
62861;SDS011;48953;53.110;5.592;2023-05-23T06:26:58;11.25;;;2.58;;
62861;SDS011;48953;53.110;5.592;2023-05-23T06:29:24;8.55;;;2.13;;
62861;SDS011;48953;53.110;5.592;2023-05-23T06:31:50;8.68;;;2.35;;
62861;SDS011;48953;53.110;5.592;2023-05-23T06:34:16;12.70;;;2.80;;
62861;SDS011;48953;53.110;5.592;2023-05-23T06:36:42;11.40;;;1.80;;
62861;SDS011;48953;53.110;5.592;2023-05-23T06:39:08;7.07;;;2.47;;
62861;SDS011;48953;53.110;5.592;2023-05-23T06:41:34;8.20;;;1.83;;
62861;SDS011;48953;53.110;5.592;2023-05-23T06:44:10;8.30;;;2.33;;
62861;SDS011;48953;53.110;5.592;2023-05-23T06:46:46;9.32;;;3.35;;
62861;SDS011;48953;53.110;5.592;2023-05-23T06:49:21;7.40;;;2.35;;
62861;SDS011;48953;53.110;5.592;2023-05-23T06:51:48;10.50;;;2.65;;
62861;SDS011;48953;53.110;5.592;2023-05-23T06:54:14;5.68;;;1.42;;
62861;SDS011;48953;53.110;5.592;2023-05-23T06:56:40;10.38;;;2.83;;
62861;SDS011;48953;53.110;5.592;2023-05-23T06:59:06;6.78;;;2.97;;
62861;SDS011;48953;53.110;5.592;2023-05-23T07:01:32;12.52;;;3.63;;
62861;SDS011;48953;53.110;5.592;2023-05-23T07:03:58;7.53;;;2.17;;
62861;SDS011;48953;53.110;5.592;2023-05-23T07:06:24;6.18;;;2.17;;
62861;SDS011;48953;53.110;5.592;2023-05-23T07:08:51;7.28;;;2.33;;
62861;SDS011;48953;53.110;5.592;2023-05-23T07:11:17;10.90;;;2.83;;
62861;SDS011;48953;53.110;5.592;2023-05-23T07:13:43;11.95;;;2.42;;
62861;SDS011;48953;53.110;5.592;2023-05-23T07:16:10;9.10;;;2.05;;
62861;SDS011;48953;53.110;5.592;2023-05-23T07:18:36;9.75;;;2.70;;
62861;SDS011;48953;53.110;5.592;2023-05-23T07:21:02;11.10;;;3.05;;
62861;SDS011;48953;53.110;5.592;2023-05-23T07:23:31;11.90;;;3.05;;
62861;SDS011;48953;53.110;5.592;2023-05-23T07:25:58;5.50;;;2.67;;
62861;SDS011;48953;53.110;5.592;2023-05-23T07:28:24;10.57;;;3.05;;
62861;SDS011;48953;53.110;5.592;2023-05-23T07:30:50;7.32;;;2.10;;
62861;SDS011;48953;53.110;5.592;2023-05-23T07:33:16;10.15;;;1.98;;
62861;SDS011;48953;53.110;5.592;2023-05-23T07:35:42;5.82;;;1.60;;
62861;SDS011;48953;53.110;5.592;2023-05-23T07:38:09;11.52;;;3.53;;
62861;SDS011;48953;53.110;5.592;2023-05-23T07:40:35;8.65;;;2.95;;
62861;SDS011;48953;53.110;5.592;2023-05-23T07:43:02;15.15;;;1.85;;
62861;SDS011;48953;53.110;5.592;2023-05-23T07:45:28;5.85;;;2.00;;
62861;SDS011;48953;53.110;5.592;2023-05-23T07:47:54;10.45;;;2.75;;
62861;SDS011;48953;53.110;5.592;2023-05-23T07:50:20;6.10;;;1.77;;
62861;SDS011;48953;53.110;5.592;2023-05-23T07:52:46;4.22;;;0.95;;
62861;SDS011;48953;53.110;5.592;2023-05-23T07:55:12;5.53;;;2.08;;
62861;SDS011;48953;53.110;5.592;2023-05-23T07:57:45;8.40;;;2.65;;
62861;SDS011;48953;53.110;5.592;2023-05-23T08:00:12;9.35;;;2.50;;
62861;SDS011;48953;53.110;5.592;2023-05-23T08:02:38;8.30;;;2.95;;
62861;SDS011;48953;53.110;5.592;2023-05-23T08:05:04;10.80;;;2.55;;
62861;SDS011;48953;53.110;5.592;2023-05-23T08:07:31;10.48;;;2.25;;
62861;SDS011;48953;53.110;5.592;2023-05-23T08:09:57;8.65;;;2.15;;
62861;SDS011;48953;53.110;5.592;2023-05-23T08:12:23;9.63;;;1.90;;
62861;SDS011;48953;53.110;5.592;2023-05-23T08:14:49;9.10;;;2.25;;
62861;SDS011;48953;53.110;5.592;2023-05-23T08:17:14;5.88;;;1.48;;
62861;SDS011;48953;53.110;5.592;2023-05-23T08:19:40;5.82;;;1.77;;
62861;SDS011;48953;53.110;5.592;2023-05-23T08:22:07;6.60;;;1.38;;
62861;SDS011;48953;53.110;5.592;2023-05-23T08:24:33;8.70;;;1.98;;
62861;SDS011;48953;53.110;5.592;2023-05-23T08:26:59;7.70;;;2.00;;
62861;SDS011;48953;53.110;5.592;2023-05-23T08:29:25;9.73;;;3.63;;
62861;SDS011;48953;53.110;5.592;2023-05-23T08:31:52;12.75;;;3.08;;
62861;SDS011;48953;53.110;5.592;2023-05-23T08:34:18;13.23;;;3.95;;
62861;SDS011;48953;53.110;5.592;2023-05-23T08:36:44;9.63;;;2.95;;
62861;SDS011;48953;53.110;5.592;2023-05-23T08:39:10;12.10;;;3.38;;
62861;SDS011;48953;53.110;5.592;2023-05-23T08:41:37;6.40;;;1.33;;
62861;SDS011;48953;53.110;5.592;2023-05-23T08:44:04;5.35;;;2.63;;
62861;SDS011;48953;53.110;5.592;2023-05-23T08:46:30;6.75;;;1.55;;
62861;SDS011;48953;53.110;5.592;2023-05-23T08:48:57;7.55;;;2.05;;
62861;SDS011;48953;53.110;5.592;2023-05-23T08:51:25;10.95;;;3.45;;
62861;SDS011;48953;53.110;5.592;2023-05-23T08:53:51;10.57;;;2.65;;
62861;SDS011;48953;53.110;5.592;2023-05-23T08:56:17;5.13;;;1.88;;
62861;SDS011;48953;53.110;5.592;2023-05-23T08:58:44;8.90;;;1.60;;
62861;SDS011;48953;53.110;5.592;2023-05-23T09:01:12;3.60;;;1.02;;
62861;SDS011;48953;53.110;5.592;2023-05-23T09:03:38;4.22;;;1.55;;
62861;SDS011;48953;53.110;5.592;2023-05-23T09:06:06;6.95;;;2.58;;
62861;SDS011;48953;53.110;5.592;2023-05-23T09:08:32;9.13;;;2.47;;
62861;SDS011;48953;53.110;5.592;2023-05-23T09:10:59;8.07;;;1.85;;
62861;SDS011;48953;53.110;5.592;2023-05-23T09:13:27;7.40;;;1.65;;
62861;SDS011;48953;53.110;5.592;2023-05-23T09:18:24;3.00;;;1.20;;
62861;SDS011;48953;53.110;5.592;2023-05-23T09:20:51;7.55;;;1.73;;
62861;SDS011;48953;53.110;5.592;2023-05-23T09:25:48;6.70;;;1.95;;
62861;SDS011;48953;53.110;5.592;2023-05-23T09:28:14;7.72;;;2.42;;
62861;SDS011;48953;53.110;5.592;2023-05-23T09:30:40;8.90;;;2.72;;
62861;SDS011;48953;53.110;5.592;2023-05-23T09:33:06;2.22;;;1.38;;
62861;SDS011;48953;53.110;5.592;2023-05-23T09:35:32;9.25;;;2.40;;
62861;SDS011;48953;53.110;5.592;2023-05-23T09:37:58;12.18;;;2.30;;
62861;SDS011;48953;53.110;5.592;2023-05-23T09:40:33;6.57;;;2.03;;
62861;SDS011;48953;53.110;5.592;2023-05-23T09:43:03;8.38;;;1.67;;
62861;SDS011;48953;53.110;5.592;2023-05-23T09:45:30;11.98;;;2.75;;
62861;SDS011;48953;53.110;5.592;2023-05-23T09:47:56;5.68;;;1.77;;
62861;SDS011;48953;53.110;5.592;2023-05-23T09:50:22;3.58;;;0.75;;
62861;SDS011;48953;53.110;5.592;2023-05-23T09:52:49;5.97;;;1.50;;
62861;SDS011;48953;53.110;5.592;2023-05-23T09:55:15;7.43;;;2.15;;
62861;SDS011;48953;53.110;5.592;2023-05-23T09:57:41;8.80;;;1.38;;
62861;SDS011;48953;53.110;5.592;2023-05-23T10:00:08;7.45;;;1.58;;
62861;SDS011;48953;53.110;5.592;2023-05-23T10:07:57;9.27;;;1.70;;
62861;SDS011;48953;53.110;5.592;2023-05-23T10:10:31;4.63;;;1.88;;
62861;SDS011;48953;53.110;5.592;2023-05-23T10:12:58;8.32;;;2.30;;
62861;SDS011;48953;53.110;5.592;2023-05-23T10:15:28;10.98;;;3.55;;
62861;SDS011;48953;53.110;5.592;2023-05-23T10:20:24;9.38;;;1.60;;
62861;SDS011;48953;53.110;5.592;2023-05-23T10:22:50;11.93;;;3.28;;
62861;SDS011;48953;53.110;5.592;2023-05-23T10:25:16;8.18;;;2.03;;
62861;SDS011;48953;53.110;5.592;2023-05-23T10:27:43;9.65;;;2.08;;
62861;SDS011;48953;53.110;5.592;2023-05-23T10:30:25;3.13;;;1.35;;
62861;SDS011;48953;53.110;5.592;2023-05-23T10:32:58;5.72;;;1.60;;
62861;SDS011;48953;53.110;5.592;2023-05-23T10:38:27;8.27;;;1.85;;
62861;SDS011;48953;53.110;5.592;2023-05-23T10:40:45;7.93;;;1.75;;
62861;SDS011;48953;53.110;5.592;2023-05-23T10:43:17;7.93;;;1.55;;
62861;SDS011;48953;53.110;5.592;2023-05-23T10:45:44;8.18;;;1.88;;
62861;SDS011;48953;53.110;5.592;2023-05-23T10:48:33;8.05;;;2.05;;
62861;SDS011;48953;53.110;5.592;2023-05-23T10:51:00;12.10;;;2.88;;
62861;SDS011;48953;53.110;5.592;2023-05-23T10:53:28;7.95;;;2.00;;
62861;SDS011;48953;53.110;5.592;2023-05-23T10:55:55;5.45;;;1.65;;
62861;SDS011;48953;53.110;5.592;2023-05-23T10:58:21;7.28;;;1.92;;
62861;SDS011;48953;53.110;5.592;2023-05-23T11:00:59;6.13;;;1.83;;
62861;SDS011;48953;53.110;5.592;2023-05-23T11:03:35;9.15;;;1.80;;
62861;SDS011;48953;53.110;5.592;2023-05-23T11:06:02;7.20;;;2.15;;
62861;SDS011;48953;53.110;5.592;2023-05-23T11:08:38;7.90;;;2.58;;
62861;SDS011;48953;53.110;5.592;2023-05-23T11:11:06;9.15;;;2.40;;
62861;SDS011;48953;53.110;5.592;2023-05-23T11:19:38;8.48;;;2.55;;
62861;SDS011;48953;53.110;5.592;2023-05-23T11:22:14;8.13;;;1.67;;
62861;SDS011;48953;53.110;5.592;2023-05-23T11:24:49;4.80;;;1.40;;
62861;SDS011;48953;53.110;5.592;2023-05-23T11:27:15;8.73;;;2.08;;
62861;SDS011;48953;53.110;5.592;2023-05-23T11:29:44;5.55;;;1.50;;
62861;SDS011;48953;53.110;5.592;2023-05-23T11:32:11;8.80;;;1.75;;
62861;SDS011;48953;53.110;5.592;2023-05-23T11:34:37;7.47;;;2.05;;
62861;SDS011;48953;53.110;5.592;2023-05-23T11:37:03;7.80;;;1.67;;
62861;SDS011;48953;53.110;5.592;2023-05-23T11:39:30;4.22;;;1.58;;
62861;SDS011;48953;53.110;5.592;2023-05-23T11:41:59;7.90;;;1.70;;
62861;SDS011;48953;53.110;5.592;2023-05-23T11:44:25;3.50;;;1.23;;
62861;SDS011;48953;53.110;5.592;2023-05-23T11:47:00;11.05;;;2.38;;
62861;SDS011;48953;53.110;5.592;2023-05-23T11:49:27;5.78;;;2.15;;
62861;SDS011;48953;53.110;5.592;2023-05-23T11:51:53;3.95;;;0.95;;
62861;SDS011;48953;53.110;5.592;2023-05-23T11:54:21;5.13;;;1.10;;
62861;SDS011;48953;53.110;5.592;2023-05-23T11:56:55;14.35;;;2.00;;
62861;SDS011;48953;53.110;5.592;2023-05-23T11:59:22;6.63;;;1.38;;
62861;SDS011;48953;53.110;5.592;2023-05-23T12:01:51;3.30;;;0.90;;
62861;SDS011;48953;53.110;5.592;2023-05-23T12:04:17;7.35;;;1.88;;
62861;SDS011;48953;53.110;5.592;2023-05-23T12:06:47;5.22;;;1.50;;
62861;SDS011;48953;53.110;5.592;2023-05-23T12:09:13;7.07;;;2.28;;
62861;SDS011;48953;53.110;5.592;2023-05-23T12:11:40;6.15;;;1.15;;
62861;SDS011;48953;53.110;5.592;2023-05-23T12:14:07;9.07;;;1.67;;
62861;SDS011;48953;53.110;5.592;2023-05-23T12:16:34;7.97;;;1.60;;
62861;SDS011;48953;53.110;5.592;2023-05-23T12:19:01;4.53;;;1.73;;
62861;SDS011;48953;53.110;5.592;2023-05-23T12:21:46;11.80;;;4.07;;
62861;SDS011;48953;53.110;5.592;2023-05-23T12:24:16;5.68;;;1.40;;
62861;SDS011;48953;53.110;5.592;2023-05-23T12:26:46;8.15;;;2.03;;
62861;SDS011;48953;53.110;5.592;2023-05-23T12:29:12;1.15;;;0.77;;
62861;SDS011;48953;53.110;5.592;2023-05-23T12:31:38;27.02;;;2.97;;
62861;SDS011;48953;53.110;5.592;2023-05-23T12:34:04;5.90;;;1.33;;
62861;SDS011;48953;53.110;5.592;2023-05-23T12:36:30;4.85;;;1.48;;
62861;SDS011;48953;53.110;5.592;2023-05-23T12:39:02;8.02;;;2.40;;
62861;SDS011;48953;53.110;5.592;2023-05-23T12:41:28;9.88;;;1.52;;
62861;SDS011;48953;53.110;5.592;2023-05-23T12:43:55;5.97;;;1.35;;
62861;SDS011;48953;53.110;5.592;2023-05-23T12:46:22;5.18;;;1.50;;
62861;SDS011;48953;53.110;5.592;2023-05-23T12:48:49;6.80;;;1.63;;
62861;SDS011;48953;53.110;5.592;2023-05-23T12:51:15;5.75;;;1.88;;
62861;SDS011;48953;53.110;5.592;2023-05-23T12:53:41;5.65;;;1.70;;
62861;SDS011;48953;53.110;5.592;2023-05-23T12:56:07;3.97;;;1.58;;
62861;SDS011;48953;53.110;5.592;2023-05-23T12:58:33;8.70;;;1.73;;
62861;SDS011;48953;53.110;5.592;2023-05-23T13:01:00;9.20;;;2.20;;
62861;SDS011;48953;53.110;5.592;2023-05-23T13:03:26;5.93;;;1.23;;
62861;SDS011;48953;53.110;5.592;2023-05-23T13:05:55;3.38;;;1.08;;
62861;SDS011;48953;53.110;5.592;2023-05-23T13:08:21;10.07;;;1.48;;
62861;SDS011;48953;53.110;5.592;2023-05-23T13:10:47;8.48;;;1.85;;
62861;SDS011;48953;53.110;5.592;2023-05-23T13:13:13;7.05;;;1.42;;
62861;SDS011;48953;53.110;5.592;2023-05-23T13:15:39;5.07;;;1.00;;
62861;SDS011;48953;53.110;5.592;2023-05-23T13:18:06;5.47;;;1.38;;
62861;SDS011;48953;53.110;5.592;2023-05-23T13:20:32;4.40;;;1.65;;
62861;SDS011;48953;53.110;5.592;2023-05-23T13:22:58;8.88;;;1.20;;
62861;SDS011;48953;53.110;5.592;2023-05-23T13:25:25;5.82;;;1.02;;
62861;SDS011;48953;53.110;5.592;2023-05-23T13:27:51;10.02;;;1.67;;
62861;SDS011;48953;53.110;5.592;2023-05-23T13:30:18;5.18;;;1.30;;
62861;SDS011;48953;53.110;5.592;2023-05-23T13:32:44;3.58;;;1.05;;
62861;SDS011;48953;53.110;5.592;2023-05-23T13:35:10;4.85;;;1.10;;
62861;SDS011;48953;53.110;5.592;2023-05-23T13:37:36;5.03;;;1.73;;
62861;SDS011;48953;53.110;5.592;2023-05-23T13:40:11;3.25;;;0.85;;
62861;SDS011;48953;53.110;5.592;2023-05-23T13:42:37;5.97;;;1.63;;
62861;SDS011;48953;53.110;5.592;2023-05-23T13:45:03;1.95;;;0.75;;
62861;SDS011;48953;53.110;5.592;2023-05-23T13:47:30;8.00;;;1.50;;
62861;SDS011;48953;53.110;5.592;2023-05-23T13:49:56;7.65;;;1.58;;
62861;SDS011;48953;53.110;5.592;2023-05-23T13:52:21;3.80;;;1.02;;
62861;SDS011;48953;53.110;5.592;2023-05-23T13:54:47;7.90;;;1.63;;
62861;SDS011;48953;53.110;5.592;2023-05-23T13:57:13;7.32;;;1.50;;
62861;SDS011;48953;53.110;5.592;2023-05-23T13:59:39;7.55;;;1.13;;
62861;SDS011;48953;53.110;5.592;2023-05-23T14:02:05;5.68;;;0.90;;
62861;SDS011;48953;53.110;5.592;2023-05-23T14:04:32;7.57;;;1.40;;
62861;SDS011;48953;53.110;5.592;2023-05-23T14:06:58;3.70;;;0.85;;
62861;SDS011;48953;53.110;5.592;2023-05-23T14:09:24;7.65;;;1.70;;
62861;SDS011;48953;53.110;5.592;2023-05-23T14:11:50;8.60;;;2.83;;
62861;SDS011;48953;53.110;5.592;2023-05-23T14:14:18;5.97;;;1.60;;
62861;SDS011;48953;53.110;5.592;2023-05-23T14:16:44;3.83;;;0.90;;
62861;SDS011;48953;53.110;5.592;2023-05-23T14:19:10;9.77;;;1.90;;
62861;SDS011;48953;53.110;5.592;2023-05-23T14:21:36;4.15;;;1.20;;
62861;SDS011;48953;53.110;5.592;2023-05-23T14:24:02;2.10;;;1.10;;
62861;SDS011;48953;53.110;5.592;2023-05-23T14:26:28;4.82;;;1.40;;
62861;SDS011;48953;53.110;5.592;2023-05-23T14:28:55;3.63;;;1.25;;
62861;SDS011;48953;53.110;5.592;2023-05-23T14:31:21;4.97;;;2.03;;
62861;SDS011;48953;53.110;5.592;2023-05-23T14:33:47;8.57;;;1.85;;
62861;SDS011;48953;53.110;5.592;2023-05-23T14:36:14;5.90;;;1.75;;
62861;SDS011;48953;53.110;5.592;2023-05-23T14:38:40;4.60;;;1.23;;
62861;SDS011;48953;53.110;5.592;2023-05-23T14:41:09;6.60;;;1.20;;
62861;SDS011;48953;53.110;5.592;2023-05-23T14:43:35;7.85;;;1.38;;
62861;SDS011;48953;53.110;5.592;2023-05-23T14:46:01;4.18;;;1.35;;
62861;SDS011;48953;53.110;5.592;2023-05-23T14:48:27;6.00;;;1.60;;
62861;SDS011;48953;53.110;5.592;2023-05-23T14:50:53;4.38;;;1.10;;
62861;SDS011;48953;53.110;5.592;2023-05-23T14:53:19;5.60;;;1.27;;
62861;SDS011;48953;53.110;5.592;2023-05-23T14:55:48;3.65;;;1.20;;
62861;SDS011;48953;53.110;5.592;2023-05-23T14:58:14;6.95;;;1.35;;
62861;SDS011;48953;53.110;5.592;2023-05-23T15:00:40;12.55;;;2.47;;
62861;SDS011;48953;53.110;5.592;2023-05-23T15:03:06;7.13;;;1.50;;
62861;SDS011;48953;53.110;5.592;2023-05-23T15:05:32;8.73;;;1.83;;
62861;SDS011;48953;53.110;5.592;2023-05-23T15:07:59;11.32;;;1.92;;
62861;SDS011;48953;53.110;5.592;2023-05-23T15:10:27;5.75;;;1.63;;
62861;SDS011;48953;53.110;5.592;2023-05-23T15:12:53;4.63;;;1.30;;